sensor_id;sensor_type;location;lat;lon;timestamp;P1;durP1;ratioP1;P2;durP2;ratioP2
20022;SDS011;10172;42.054;24.546;2022-09-28T00:01:49;3.20;;;1.50;;
20022;SDS011;10172;42.054;24.546;2022-09-28T00:04:17;1.13;;;1.02;;
20022;SDS011;10172;42.054;24.546;2022-09-28T00:06:44;2.80;;;1.20;;
20022;SDS011;10172;42.054;24.546;2022-09-28T00:09:11;1.52;;;1.25;;
20022;SDS011;10172;42.054;24.546;2022-09-28T00:11:40;1.80;;;1.30;;
20022;SDS011;10172;42.054;24.546;2022-09-28T00:14:07;1.60;;;1.20;;
20022;SDS011;10172;42.054;24.546;2022-09-28T00:16:35;1.40;;;1.30;;
20022;SDS011;10172;42.054;24.546;2022-09-28T00:19:03;1.25;;;1.15;;
20022;SDS011;10172;42.054;24.546;2022-09-28T00:21:32;1.60;;;1.25;;
20022;SDS011;10172;42.054;24.546;2022-09-28T00:24:00;2.05;;;1.40;;
20022;SDS011;10172;42.054;24.546;2022-09-28T00:26:36;1.10;;;1.00;;
20022;SDS011;10172;42.054;24.546;2022-09-28T00:29:04;1.67;;;1.17;;
20022;SDS011;10172;42.054;24.546;2022-09-28T00:31:31;1.38;;;1.20;;
20022;SDS011;10172;42.054;24.546;2022-09-28T00:33:58;1.52;;;1.05;;
20022;SDS011;10172;42.054;24.546;2022-09-28T00:36:26;1.17;;;1.08;;
20022;SDS011;10172;42.054;24.546;2022-09-28T00:38:54;1.77;;;1.33;;
20022;SDS011;10172;42.054;24.546;2022-09-28T00:41:20;0.98;;;0.82;;
20022;SDS011;10172;42.054;24.546;2022-09-28T00:43:46;1.33;;;1.10;;
20022;SDS011;10172;42.054;24.546;2022-09-28T00:46:13;1.05;;;0.90;;
20022;SDS011;10172;42.054;24.546;2022-09-28T00:49:00;1.42;;;1.10;;
20022;SDS011;10172;42.054;24.546;2022-09-28T00:51:31;1.23;;;1.05;;
20022;SDS011;10172;42.054;24.546;2022-09-28T00:53:58;1.63;;;1.20;;
20022;SDS011;10172;42.054;24.546;2022-09-28T00:56:26;1.55;;;1.20;;
20022;SDS011;10172;42.054;24.546;2022-09-28T00:58:55;3.00;;;1.10;;
20022;SDS011;10172;42.054;24.546;2022-09-28T01:01:24;3.00;;;1.00;;
20022;SDS011;10172;42.054;24.546;2022-09-28T01:03:51;1.20;;;1.10;;
20022;SDS011;10172;42.054;24.546;2022-09-28T01:06:21;2.70;;;1.10;;
20022;SDS011;10172;42.054;24.546;2022-09-28T01:08:49;0.77;;;0.75;;
20022;SDS011;10172;42.054;24.546;2022-09-28T01:11:17;1.00;;;0.90;;
20022;SDS011;10172;42.054;24.546;2022-09-28T01:13:43;1.55;;;1.20;;
20022;SDS011;10172;42.054;24.546;2022-09-28T01:18:57;1.70;;;1.23;;
20022;SDS011;10172;42.054;24.546;2022-09-28T01:21:47;3.45;;;1.00;;
20022;SDS011;10172;42.054;24.546;2022-09-28T01:30:04;2.50;;;1.10;;
20022;SDS011;10172;42.054;24.546;2022-09-28T01:40:26;2.22;;;0.77;;
20022;SDS011;10172;42.054;24.546;2022-09-28T01:42:56;0.75;;;0.73;;
20022;SDS011;10172;42.054;24.546;2022-09-28T01:45:27;0.95;;;0.88;;
20022;SDS011;10172;42.054;24.546;2022-09-28T01:48:00;1.85;;;1.10;;
20022;SDS011;10172;42.054;24.546;2022-09-28T01:50:28;0.73;;;0.73;;
20022;SDS011;10172;42.054;24.546;2022-09-28T01:55:34;1.13;;;0.80;;
20022;SDS011;10172;42.054;24.546;2022-09-28T01:58:04;2.25;;;0.95;;
20022;SDS011;10172;42.054;24.546;2022-09-28T02:00:37;3.25;;;1.10;;
20022;SDS011;10172;42.054;24.546;2022-09-28T02:03:19;1.30;;;1.20;;
20022;SDS011;10172;42.054;24.546;2022-09-28T02:05:57;1.13;;;0.85;;
20022;SDS011;10172;42.054;24.546;2022-09-28T02:08:30;1.00;;;0.75;;
20022;SDS011;10172;42.054;24.546;2022-09-28T02:11:07;4.22;;;1.10;;
20022;SDS011;10172;42.054;24.546;2022-09-28T02:13:40;1.67;;;0.90;;
20022;SDS011;10172;42.054;24.546;2022-09-28T02:18:43;1.55;;;1.00;;
20022;SDS011;10172;42.054;24.546;2022-09-28T02:21:22;1.05;;;0.90;;
20022;SDS011;10172;42.054;24.546;2022-09-28T02:23:55;0.98;;;0.85;;
20022;SDS011;10172;42.054;24.546;2022-09-28T02:26:28;0.85;;;0.73;;
20022;SDS011;10172;42.054;24.546;2022-09-28T02:28:59;1.63;;;0.88;;
20022;SDS011;10172;42.054;24.546;2022-09-28T02:31:25;1.50;;;0.90;;
20022;SDS011;10172;42.054;24.546;2022-09-28T02:33:52;2.33;;;1.10;;
20022;SDS011;10172;42.054;24.546;2022-09-28T02:36:19;0.70;;;0.70;;
20022;SDS011;10172;42.054;24.546;2022-09-28T02:38:44;2.13;;;0.95;;
20022;SDS011;10172;42.054;24.546;2022-09-28T03:10:02;1.25;;;0.98;;
20022;SDS011;10172;42.054;24.546;2022-09-28T03:12:36;2.13;;;1.13;;
20022;SDS011;10172;42.054;24.546;2022-09-28T03:15:07;2.17;;;1.08;;
20022;SDS011;10172;42.054;24.546;2022-09-28T03:17:35;1.20;;;0.93;;
20022;SDS011;10172;42.054;24.546;2022-09-28T03:20:01;1.38;;;1.10;;
20022;SDS011;10172;42.054;24.546;2022-09-28T03:22:27;1.92;;;1.15;;
20022;SDS011;10172;42.054;24.546;2022-09-28T03:24:52;1.80;;;1.33;;
20022;SDS011;10172;42.054;24.546;2022-09-28T03:27:18;2.05;;;1.75;;
20022;SDS011;10172;42.054;24.546;2022-09-28T03:29:44;2.20;;;1.30;;
20022;SDS011;10172;42.054;24.546;2022-09-28T03:32:10;3.20;;;1.38;;
20022;SDS011;10172;42.054;24.546;2022-09-28T03:34:35;1.85;;;1.35;;
20022;SDS011;10172;42.054;24.546;2022-09-28T03:37:02;1.35;;;1.10;;
20022;SDS011;10172;42.054;24.546;2022-09-28T03:39:27;1.85;;;1.10;;
20022;SDS011;10172;42.054;24.546;2022-09-28T03:41:53;4.03;;;2.10;;
20022;SDS011;10172;42.054;24.546;2022-09-28T03:44:18;1.50;;;1.33;;
20022;SDS011;10172;42.054;24.546;2022-09-28T03:46:45;2.38;;;1.45;;
20022;SDS011;10172;42.054;24.546;2022-09-28T03:49:10;1.20;;;0.80;;
20022;SDS011;10172;42.054;24.546;2022-09-28T03:51:36;2.45;;;1.70;;
20022;SDS011;10172;42.054;24.546;2022-09-28T03:54:01;2.47;;;1.95;;
20022;SDS011;10172;42.054;24.546;2022-09-28T03:56:26;4.97;;;2.28;;
20022;SDS011;10172;42.054;24.546;2022-09-28T03:58:52;3.10;;;1.77;;
20022;SDS011;10172;42.054;24.546;2022-09-28T04:01:17;5.60;;;1.83;;
20022;SDS011;10172;42.054;24.546;2022-09-28T04:03:43;9.93;;;2.83;;
20022;SDS011;10172;42.054;24.546;2022-09-28T04:06:09;5.38;;;2.53;;
20022;SDS011;10172;42.054;24.546;2022-09-28T04:08:35;4.03;;;1.73;;
20022;SDS011;10172;42.054;24.546;2022-09-28T04:11:00;5.43;;;2.63;;
20022;SDS011;10172;42.054;24.546;2022-09-28T04:13:28;5.07;;;2.70;;
20022;SDS011;10172;42.054;24.546;2022-09-28T04:15:55;6.65;;;2.67;;
20022;SDS011;10172;42.054;24.546;2022-09-28T04:18:21;3.70;;;2.50;;
20022;SDS011;10172;42.054;24.546;2022-09-28T04:20:56;3.78;;;2.08;;
20022;SDS011;10172;42.054;24.546;2022-09-28T04:23:35;4.55;;;1.90;;
20022;SDS011;10172;42.054;24.546;2022-09-28T04:26:03;2.20;;;1.75;;
20022;SDS011;10172;42.054;24.546;2022-09-28T04:28:30;2.28;;;1.92;;
20022;SDS011;10172;42.054;24.546;2022-09-28T04:31:15;3.28;;;2.10;;
20022;SDS011;10172;42.054;24.546;2022-09-28T04:33:42;5.55;;;2.17;;
20022;SDS011;10172;42.054;24.546;2022-09-28T04:36:08;2.50;;;2.03;;
20022;SDS011;10172;42.054;24.546;2022-09-28T04:38:35;3.80;;;2.10;;
20022;SDS011;10172;42.054;24.546;2022-09-28T04:41:00;8.15;;;2.70;;
20022;SDS011;10172;42.054;24.546;2022-09-28T04:43:26;2.88;;;1.88;;
20022;SDS011;10172;42.054;24.546;2022-09-28T04:45:56;3.88;;;2.08;;
20022;SDS011;10172;42.054;24.546;2022-09-28T04:48:26;4.78;;;2.10;;
20022;SDS011;10172;42.054;24.546;2022-09-28T04:50:53;4.72;;;2.10;;
20022;SDS011;10172;42.054;24.546;2022-09-28T04:53:19;5.90;;;1.92;;
20022;SDS011;10172;42.054;24.546;2022-09-28T04:55:53;1.92;;;1.52;;
20022;SDS011;10172;42.054;24.546;2022-09-28T04:58:19;4.72;;;2.08;;
20022;SDS011;10172;42.054;24.546;2022-09-28T05:00:45;1.98;;;1.70;;
20022;SDS011;10172;42.054;24.546;2022-09-28T05:03:10;2.00;;;1.40;;
20022;SDS011;10172;42.054;24.546;2022-09-28T05:05:36;1.67;;;1.20;;
20022;SDS011;10172;42.054;24.546;2022-09-28T05:08:10;3.35;;;1.60;;
20022;SDS011;10172;42.054;24.546;2022-09-28T05:10:35;2.40;;;1.52;;
20022;SDS011;10172;42.054;24.546;2022-09-28T05:13:04;2.25;;;1.52;;
20022;SDS011;10172;42.054;24.546;2022-09-28T05:15:30;1.85;;;1.40;;
20022;SDS011;10172;42.054;24.546;2022-09-28T05:17:56;3.35;;;1.45;;
20022;SDS011;10172;42.054;24.546;2022-09-28T05:20:21;1.85;;;1.40;;
20022;SDS011;10172;42.054;24.546;2022-09-28T05:22:46;3.05;;;1.58;;
20022;SDS011;10172;42.054;24.546;2022-09-28T05:25:12;2.80;;;1.60;;
20022;SDS011;10172;42.054;24.546;2022-09-28T05:27:37;3.78;;;1.70;;
20022;SDS011;10172;42.054;24.546;2022-09-28T05:30:03;5.10;;;2.10;;
20022;SDS011;10172;42.054;24.546;2022-09-28T05:32:28;1.40;;;1.30;;
20022;SDS011;10172;42.054;24.546;2022-09-28T05:34:54;1.92;;;1.17;;
20022;SDS011;10172;42.054;24.546;2022-09-28T05:37:20;1.63;;;1.25;;
20022;SDS011;10172;42.054;24.546;2022-09-28T05:39:45;4.05;;;2.03;;
20022;SDS011;10172;42.054;24.546;2022-09-28T05:42:11;2.13;;;1.50;;
20022;SDS011;10172;42.054;24.546;2022-09-28T05:44:36;3.88;;;1.40;;
20022;SDS011;10172;42.054;24.546;2022-09-28T05:47:02;6.18;;;1.58;;
20022;SDS011;10172;42.054;24.546;2022-09-28T05:49:27;1.77;;;1.45;;
20022;SDS011;10172;42.054;24.546;2022-09-28T05:51:55;4.78;;;1.85;;
20022;SDS011;10172;42.054;24.546;2022-09-28T05:54:21;1.80;;;1.48;;
20022;SDS011;10172;42.054;24.546;2022-09-28T05:56:46;2.17;;;1.40;;
20022;SDS011;10172;42.054;24.546;2022-09-28T05:59:12;1.63;;;1.20;;
20022;SDS011;10172;42.054;24.546;2022-09-28T06:01:37;1.70;;;1.23;;
20022;SDS011;10172;42.054;24.546;2022-09-28T06:04:03;1.85;;;1.20;;
20022;SDS011;10172;42.054;24.546;2022-09-28T06:06:28;1.70;;;1.60;;
20022;SDS011;10172;42.054;24.546;2022-09-28T06:08:54;2.03;;;1.38;;
20022;SDS011;10172;42.054;24.546;2022-09-28T06:11:19;4.22;;;1.30;;
20022;SDS011;10172;42.054;24.546;2022-09-28T06:13:44;3.33;;;1.50;;
20022;SDS011;10172;42.054;24.546;2022-09-28T06:16:13;1.50;;;1.38;;
20022;SDS011;10172;42.054;24.546;2022-09-28T06:18:39;2.17;;;1.55;;
20022;SDS011;10172;42.054;24.546;2022-09-28T06:21:05;2.15;;;1.25;;
20022;SDS011;10172;42.054;24.546;2022-09-28T06:23:34;1.80;;;1.35;;
20022;SDS011;10172;42.054;24.546;2022-09-28T06:26:00;2.45;;;1.55;;
20022;SDS011;10172;42.054;24.546;2022-09-28T06:28:25;1.98;;;1.27;;
20022;SDS011;10172;42.054;24.546;2022-09-28T06:30:51;1.95;;;1.20;;
20022;SDS011;10172;42.054;24.546;2022-09-28T06:33:17;1.92;;;1.20;;
20022;SDS011;10172;42.054;24.546;2022-09-28T06:35:42;1.30;;;1.17;;
20022;SDS011;10172;42.054;24.546;2022-09-28T06:38:08;1.45;;;1.20;;
20022;SDS011;10172;42.054;24.546;2022-09-28T06:40:34;1.27;;;1.10;;
20022;SDS011;10172;42.054;24.546;2022-09-28T06:43:01;6.85;;;1.38;;
20022;SDS011;10172;42.054;24.546;2022-09-28T06:45:30;3.85;;;1.45;;
20022;SDS011;10172;42.054;24.546;2022-09-28T06:47:56;2.63;;;1.60;;
20022;SDS011;10172;42.054;24.546;2022-09-28T06:50:41;3.55;;;1.63;;
20022;SDS011;10172;42.054;24.546;2022-09-28T06:53:09;4.43;;;1.63;;
20022;SDS011;10172;42.054;24.546;2022-09-28T06:55:40;5.40;;;2.95;;
20022;SDS011;10172;42.054;24.546;2022-09-28T06:58:10;4.30;;;2.50;;
20022;SDS011;10172;42.054;24.546;2022-09-28T07:00:37;4.82;;;1.90;;
20022;SDS011;10172;42.054;24.546;2022-09-28T07:03:04;4.38;;;2.42;;
20022;SDS011;10172;42.054;24.546;2022-09-28T07:05:31;3.60;;;1.83;;
20022;SDS011;10172;42.054;24.546;2022-09-28T07:08:00;3.25;;;2.00;;
20022;SDS011;10172;42.054;24.546;2022-09-28T07:10:27;6.60;;;1.60;;
20022;SDS011;10172;42.054;24.546;2022-09-28T07:12:54;3.15;;;1.70;;
20022;SDS011;10172;42.054;24.546;2022-09-28T07:15:21;2.58;;;1.50;;
20022;SDS011;10172;42.054;24.546;2022-09-28T07:17:47;2.78;;;1.60;;
20022;SDS011;10172;42.054;24.546;2022-09-28T07:20:13;2.47;;;1.30;;
20022;SDS011;10172;42.054;24.546;2022-09-28T07:22:39;2.40;;;1.05;;
20022;SDS011;10172;42.054;24.546;2022-09-28T07:25:05;2.67;;;0.98;;
20022;SDS011;10172;42.054;24.546;2022-09-28T07:27:31;1.83;;;1.10;;
20022;SDS011;10172;42.054;24.546;2022-09-28T07:29:57;2.50;;;1.73;;
20022;SDS011;10172;42.054;24.546;2022-09-28T07:32:26;3.38;;;1.48;;
20022;SDS011;10172;42.054;24.546;2022-09-28T07:34:52;2.55;;;1.40;;
20022;SDS011;10172;42.054;24.546;2022-09-28T07:37:18;3.80;;;1.20;;
20022;SDS011;10172;42.054;24.546;2022-09-28T07:39:44;3.30;;;1.67;;
20022;SDS011;10172;42.054;24.546;2022-09-28T07:42:28;2.67;;;1.65;;
20022;SDS011;10172;42.054;24.546;2022-09-28T07:44:55;1.42;;;0.90;;
20022;SDS011;10172;42.054;24.546;2022-09-28T07:47:21;1.90;;;1.02;;
20022;SDS011;10172;42.054;24.546;2022-09-28T07:49:51;4.20;;;1.20;;
20022;SDS011;10172;42.054;24.546;2022-09-28T07:52:19;1.88;;;1.58;;
20022;SDS011;10172;42.054;24.546;2022-09-28T07:54:47;4.63;;;2.55;;
20022;SDS011;10172;42.054;24.546;2022-09-28T07:57:16;2.47;;;1.40;;
20022;SDS011;10172;42.054;24.546;2022-09-28T07:59:42;1.73;;;1.20;;
20022;SDS011;10172;42.054;24.546;2022-09-28T08:02:09;4.47;;;2.47;;
20022;SDS011;10172;42.054;24.546;2022-09-28T08:04:35;4.78;;;2.90;;
20022;SDS011;10172;42.054;24.546;2022-09-28T08:07:01;3.25;;;1.70;;
20022;SDS011;10172;42.054;24.546;2022-09-28T08:09:27;1.23;;;1.05;;
20022;SDS011;10172;42.054;24.546;2022-09-28T08:11:53;1.83;;;1.00;;
20022;SDS011;10172;42.054;24.546;2022-09-28T08:14:21;1.23;;;1.08;;
20022;SDS011;10172;42.054;24.546;2022-09-28T08:16:48;1.25;;;1.13;;
20022;SDS011;10172;42.054;24.546;2022-09-28T08:19:14;3.67;;;1.05;;
20022;SDS011;10172;42.054;24.546;2022-09-28T08:21:39;2.08;;;1.55;;
20022;SDS011;10172;42.054;24.546;2022-09-28T08:24:14;4.30;;;2.33;;
20022;SDS011;10172;42.054;24.546;2022-09-28T08:26:41;2.58;;;1.63;;
20022;SDS011;10172;42.054;24.546;2022-09-28T08:29:08;5.65;;;3.50;;
20022;SDS011;10172;42.054;24.546;2022-09-28T08:31:34;7.82;;;3.30;;
20022;SDS011;10172;42.054;24.546;2022-09-28T08:34:00;2.20;;;1.48;;
20022;SDS011;10172;42.054;24.546;2022-09-28T08:36:26;4.63;;;1.83;;
20022;SDS011;10172;42.054;24.546;2022-09-28T08:38:52;3.22;;;1.60;;
20022;SDS011;10172;42.054;24.546;2022-09-28T08:44:19;1.98;;;1.17;;
20022;SDS011;10172;42.054;24.546;2022-09-28T08:46:52;2.10;;;1.52;;
20022;SDS011;10172;42.054;24.546;2022-09-28T08:49:58;2.10;;;1.40;;
20022;SDS011;10172;42.054;24.546;2022-09-28T08:52:27;1.88;;;1.40;;
20022;SDS011;10172;42.054;24.546;2022-09-28T08:54:59;2.25;;;1.20;;
20022;SDS011;10172;42.054;24.546;2022-09-28T08:57:51;2.45;;;1.00;;
20022;SDS011;10172;42.054;24.546;2022-09-28T09:00:25;1.30;;;1.10;;
20022;SDS011;10172;42.054;24.546;2022-09-28T09:02:58;2.22;;;1.10;;
20022;SDS011;10172;42.054;24.546;2022-09-28T09:19:30;1.63;;;0.77;;
20022;SDS011;10172;42.054;24.546;2022-09-28T09:46:15;1.70;;;1.20;;
20022;SDS011;10172;42.054;24.546;2022-09-28T09:48:57;1.30;;;0.90;;
20022;SDS011;10172;42.054;24.546;2022-09-28T09:51:42;2.13;;;0.98;;
20022;SDS011;10172;42.054;24.546;2022-09-28T09:58:01;1.58;;;1.00;;
20022;SDS011;10172;42.054;24.546;2022-09-28T10:00:09;1.80;;;1.10;;
20022;SDS011;10172;42.054;24.546;2022-09-28T10:02:37;6.55;;;2.80;;
20022;SDS011;10172;42.054;24.546;2022-09-28T10:10:34;1.10;;;1.00;;
20022;SDS011;10172;42.054;24.546;2022-09-28T10:13:02;1.52;;;0.95;;
20022;SDS011;10172;42.054;24.546;2022-09-28T10:15:32;1.80;;;1.00;;
20022;SDS011;10172;42.054;24.546;2022-09-28T10:18:04;1.50;;;0.90;;
20022;SDS011;10172;42.054;24.546;2022-09-28T10:20:36;1.25;;;0.75;;
20022;SDS011;10172;42.054;24.546;2022-09-28T10:23:04;1.13;;;0.77;;
20022;SDS011;10172;42.054;24.546;2022-09-28T10:25:37;2.20;;;1.08;;
20022;SDS011;10172;42.054;24.546;2022-09-28T10:28:03;0.98;;;0.88;;
20022;SDS011;10172;42.054;24.546;2022-09-28T10:30:33;2.17;;;0.73;;
20022;SDS011;10172;42.054;24.546;2022-09-28T10:33:30;1.02;;;0.80;;
20022;SDS011;10172;42.054;24.546;2022-09-28T10:35:58;1.77;;;0.98;;
20022;SDS011;10172;42.054;24.546;2022-09-28T10:38:25;0.98;;;0.80;;
20022;SDS011;10172;42.054;24.546;2022-09-28T10:40:58;0.98;;;0.63;;
20022;SDS011;10172;42.054;24.546;2022-09-28T10:43:26;3.60;;;0.90;;
20022;SDS011;10172;42.054;24.546;2022-09-28T10:46:02;0.70;;;0.63;;
20022;SDS011;10172;42.054;24.546;2022-09-28T10:51:40;1.05;;;0.60;;
20022;SDS011;10172;42.054;24.546;2022-09-28T10:54:18;2.25;;;0.80;;
20022;SDS011;10172;42.054;24.546;2022-09-28T10:56:46;1.23;;;0.80;;
20022;SDS011;10172;42.054;24.546;2022-09-28T11:01:54;0.82;;;0.60;;
20022;SDS011;10172;42.054;24.546;2022-09-28T11:04:24;1.02;;;0.57;;
20022;SDS011;10172;42.054;24.546;2022-09-28T11:06:52;1.55;;;0.60;;
20022;SDS011;10172;42.054;24.546;2022-09-28T11:09:27;0.88;;;0.43;;
20022;SDS011;10172;42.054;24.546;2022-09-28T11:11:56;0.60;;;0.40;;
20022;SDS011;10172;42.054;24.546;2022-09-28T11:17:15;0.25;;;0.22;;
20022;SDS011;10172;42.054;24.546;2022-09-28T11:19:44;1.10;;;0.50;;
20022;SDS011;10172;42.054;24.546;2022-09-28T11:32:48;0.28;;;0.28;;
20022;SDS011;10172;42.054;24.546;2022-09-28T11:35:20;0.45;;;0.35;;
20022;SDS011;10172;42.054;24.546;2022-09-28T11:38:06;0.52;;;0.30;;
20022;SDS011;10172;42.054;24.546;2022-09-28T11:40:59;0.88;;;0.50;;
20022;SDS011;10172;42.054;24.546;2022-09-28T11:46:39;1.63;;;0.30;;
20022;SDS011;10172;42.054;24.546;2022-09-28T11:51:44;2.00;;;0.40;;
20022;SDS011;10172;42.054;24.546;2022-09-28T11:54:23;1.20;;;0.47;;
20022;SDS011;10172;42.054;24.546;2022-09-28T11:56:50;0.88;;;0.40;;
20022;SDS011;10172;42.054;24.546;2022-09-28T11:59:19;0.28;;;0.20;;
20022;SDS011;10172;42.054;24.546;2022-09-28T12:07:19;0.30;;;0.30;;
20022;SDS011;10172;42.054;24.546;2022-09-28T12:09:55;0.45;;;0.40;;
20022;SDS011;10172;42.054;24.546;2022-09-28T12:12:32;0.60;;;0.30;;
20022;SDS011;10172;42.054;24.546;2022-09-28T12:15:11;1.50;;;0.65;;
20022;SDS011;10172;42.054;24.546;2022-09-28T12:17:46;1.45;;;0.40;;
20022;SDS011;10172;42.054;24.546;2022-09-28T12:25:47;0.45;;;0.40;;
20022;SDS011;10172;42.054;24.546;2022-09-28T12:28:24;0.57;;;0.40;;
20022;SDS011;10172;42.054;24.546;2022-09-28T12:30:50;1.25;;;0.40;;
20022;SDS011;10172;42.054;24.546;2022-09-28T12:33:18;8.13;;;0.60;;
20022;SDS011;10172;42.054;24.546;2022-09-28T12:46:15;1.55;;;0.60;;
20022;SDS011;10172;42.054;24.546;2022-09-28T12:53:59;2.00;;;0.50;;
20022;SDS011;10172;42.054;24.546;2022-09-28T12:56:40;0.57;;;0.45;;
20022;SDS011;10172;42.054;24.546;2022-09-28T13:01:57;0.95;;;0.50;;
20022;SDS011;10172;42.054;24.546;2022-09-28T13:18:24;0.35;;;0.30;;
20022;SDS011;10172;42.054;24.546;2022-09-28T13:23:58;8.75;;;0.70;;
20022;SDS011;10172;42.054;24.546;2022-09-28T13:26:29;2.25;;;0.73;;
20022;SDS011;10172;42.054;24.546;2022-09-28T13:29:08;1.48;;;0.73;;
20022;SDS011;10172;42.054;24.546;2022-09-28T13:31:45;1.15;;;0.70;;
20022;SDS011;10172;42.054;24.546;2022-09-28T13:34:16;0.60;;;0.52;;
20022;SDS011;10172;42.054;24.546;2022-09-28T13:37:06;1.42;;;0.60;;
20022;SDS011;10172;42.054;24.546;2022-09-28T13:42:01;0.98;;;0.52;;
20022;SDS011;10172;42.054;24.546;2022-09-28T13:44:34;0.95;;;0.50;;
20022;SDS011;10172;42.054;24.546;2022-09-28T13:59:22;0.82;;;0.50;;
20022;SDS011;10172;42.054;24.546;2022-09-28T14:02:55;1.05;;;0.50;;
20022;SDS011;10172;42.054;24.546;2022-09-28T14:16:34;0.98;;;0.40;;
20022;SDS011;10172;42.054;24.546;2022-09-28T14:19:08;0.63;;;0.40;;
20022;SDS011;10172;42.054;24.546;2022-09-28T14:29:52;2.28;;;0.40;;
20022;SDS011;10172;42.054;24.546;2022-09-28T14:32:31;0.45;;;0.25;;
20022;SDS011;10172;42.054;24.546;2022-09-28T14:35:02;2.05;;;0.95;;
20022;SDS011;10172;42.054;24.546;2022-09-28T14:37:31;0.40;;;0.30;;
20022;SDS011;10172;42.054;24.546;2022-09-28T14:43:22;0.52;;;0.30;;
20022;SDS011;10172;42.054;24.546;2022-09-28T14:45:49;0.40;;;0.40;;
20022;SDS011;10172;42.054;24.546;2022-09-28T14:48:20;0.52;;;0.40;;
20022;SDS011;10172;42.054;24.546;2022-09-28T14:54:33;2.20;;;0.65;;
20022;SDS011;10172;42.054;24.546;2022-09-28T14:59:26;0.77;;;0.30;;
20022;SDS011;10172;42.054;24.546;2022-09-28T15:04:54;0.90;;;0.40;;
20022;SDS011;10172;42.054;24.546;2022-09-28T15:07:28;0.70;;;0.40;;
20022;SDS011;10172;42.054;24.546;2022-09-28T15:10:13;1.27;;;0.35;;
20022;SDS011;10172;42.054;24.546;2022-09-28T15:13:24;1.02;;;0.32;;
20022;SDS011;10172;42.054;24.546;2022-09-28T15:15:51;1.85;;;0.40;;
20022;SDS011;10172;42.054;24.546;2022-09-28T15:21:14;1.50;;;0.30;;
20022;SDS011;10172;42.054;24.546;2022-09-28T15:23:41;0.50;;;0.30;;
20022;SDS011;10172;42.054;24.546;2022-09-28T15:26:19;0.95;;;0.45;;
20022;SDS011;10172;42.054;24.546;2022-09-28T15:28:51;0.90;;;0.30;;
20022;SDS011;10172;42.054;24.546;2022-09-28T15:31:18;0.30;;;0.28;;
20022;SDS011;10172;42.054;24.546;2022-09-28T15:33:50;0.90;;;0.43;;
20022;SDS011;10172;42.054;24.546;2022-09-28T15:36:36;2.67;;;0.50;;
20022;SDS011;10172;42.054;24.546;2022-09-28T15:39:26;0.75;;;0.43;;
20022;SDS011;10172;42.054;24.546;2022-09-28T15:41:54;0.40;;;0.20;;
20022;SDS011;10172;42.054;24.546;2022-09-28T15:47:07;0.32;;;0.30;;
20022;SDS011;10172;42.054;24.546;2022-09-28T15:52:05;0.65;;;0.20;;
20022;SDS011;10172;42.054;24.546;2022-09-28T15:54:48;1.60;;;0.60;;
20022;SDS011;10172;42.054;24.546;2022-09-28T15:57:27;1.40;;;0.20;;
20022;SDS011;10172;42.054;24.546;2022-09-28T16:00:04;0.43;;;0.30;;
20022;SDS011;10172;42.054;24.546;2022-09-28T16:02:57;0.40;;;0.28;;
20022;SDS011;10172;42.054;24.546;2022-09-28T16:05:28;0.88;;;0.40;;
20022;SDS011;10172;42.054;24.546;2022-09-28T16:08:01;0.40;;;0.20;;
20022;SDS011;10172;42.054;24.546;2022-09-28T16:10:29;2.28;;;0.47;;
20022;SDS011;10172;42.054;24.546;2022-09-28T16:13:04;0.90;;;0.35;;
20022;SDS011;10172;42.054;24.546;2022-09-28T16:15:34;0.95;;;0.40;;
20022;SDS011;10172;42.054;24.546;2022-09-28T16:18:02;0.68;;;0.40;;
20022;SDS011;10172;42.054;24.546;2022-09-28T16:20:42;1.17;;;0.47;;
20022;SDS011;10172;42.054;24.546;2022-09-28T16:25:38;2.35;;;0.20;;
20022;SDS011;10172;42.054;24.546;2022-09-28T16:28:26;1.25;;;0.32;;
20022;SDS011;10172;42.054;24.546;2022-09-28T16:31:21;1.30;;;0.30;;
20022;SDS011;10172;42.054;24.546;2022-09-28T16:36:15;0.40;;;0.40;;
20022;SDS011;10172;42.054;24.546;2022-09-28T16:38:44;4.47;;;0.30;;
20022;SDS011;10172;42.054;24.546;2022-09-28T16:41:11;0.85;;;0.82;;
20022;SDS011;10172;42.054;24.546;2022-09-28T16:43:38;1.20;;;0.57;;
20022;SDS011;10172;42.054;24.546;2022-09-28T16:46:08;0.60;;;0.40;;
20022;SDS011;10172;42.054;24.546;2022-09-28T16:48:47;0.70;;;0.35;;
20022;SDS011;10172;42.054;24.546;2022-09-28T16:51:15;0.30;;;0.28;;
20022;SDS011;10172;42.054;24.546;2022-09-28T16:53:41;0.95;;;0.38;;
20022;SDS011;10172;42.054;24.546;2022-09-28T16:56:26;2.15;;;0.68;;
20022;SDS011;10172;42.054;24.546;2022-09-28T16:58:52;0.60;;;0.40;;
20022;SDS011;10172;42.054;24.546;2022-09-28T17:01:19;1.00;;;0.38;;
20022;SDS011;10172;42.054;24.546;2022-09-28T17:03:45;0.50;;;0.50;;
20022;SDS011;10172;42.054;24.546;2022-09-28T17:06:11;1.27;;;0.47;;
20022;SDS011;10172;42.054;24.546;2022-09-28T17:08:39;0.68;;;0.50;;
20022;SDS011;10172;42.054;24.546;2022-09-28T17:11:07;0.85;;;0.28;;
20022;SDS011;10172;42.054;24.546;2022-09-28T17:13:37;1.70;;;0.55;;
20022;SDS011;10172;42.054;24.546;2022-09-28T17:16:03;1.75;;;0.50;;
20022;SDS011;10172;42.054;24.546;2022-09-28T17:18:39;0.73;;;0.45;;
20022;SDS011;10172;42.054;24.546;2022-09-28T17:21:07;0.68;;;0.35;;
20022;SDS011;10172;42.054;24.546;2022-09-28T17:23:35;0.85;;;0.45;;
20022;SDS011;10172;42.054;24.546;2022-09-28T17:26:01;1.00;;;0.50;;
20022;SDS011;10172;42.054;24.546;2022-09-28T17:28:31;1.63;;;0.80;;
20022;SDS011;10172;42.054;24.546;2022-09-28T17:30:58;3.42;;;1.83;;
20022;SDS011;10172;42.054;24.546;2022-09-28T17:33:24;1.17;;;0.80;;
20022;SDS011;10172;42.054;24.546;2022-09-28T17:35:56;1.33;;;0.90;;
20022;SDS011;10172;42.054;24.546;2022-09-28T17:38:24;2.30;;;0.40;;
20022;SDS011;10172;42.054;24.546;2022-09-28T17:40:50;0.70;;;0.60;;
20022;SDS011;10172;42.054;24.546;2022-09-28T17:43:15;1.65;;;1.35;;
20022;SDS011;10172;42.054;24.546;2022-09-28T17:45:40;3.85;;;0.80;;
20022;SDS011;10172;42.054;24.546;2022-09-28T17:48:14;3.03;;;2.35;;
20022;SDS011;10172;42.054;24.546;2022-09-28T17:50:41;0.65;;;0.30;;
20022;SDS011;10172;42.054;24.546;2022-09-28T17:53:08;1.38;;;0.70;;
20022;SDS011;10172;42.054;24.546;2022-09-28T17:55:35;0.60;;;0.40;;
20022;SDS011;10172;42.054;24.546;2022-09-28T17:58:21;4.20;;;1.33;;
20022;SDS011;10172;42.054;24.546;2022-09-28T18:00:48;2.35;;;0.60;;
20022;SDS011;10172;42.054;24.546;2022-09-28T18:03:16;1.00;;;0.60;;
20022;SDS011;10172;42.054;24.546;2022-09-28T18:05:46;0.73;;;0.47;;
20022;SDS011;10172;42.054;24.546;2022-09-28T18:08:17;2.05;;;0.70;;
20022;SDS011;10172;42.054;24.546;2022-09-28T18:10:44;1.45;;;0.50;;
20022;SDS011;10172;42.054;24.546;2022-09-28T18:13:12;0.43;;;0.40;;
20022;SDS011;10172;42.054;24.546;2022-09-28T18:15:38;1.40;;;0.60;;
20022;SDS011;10172;42.054;24.546;2022-09-28T18:18:04;0.43;;;0.25;;
20022;SDS011;10172;42.054;24.546;2022-09-28T18:20:33;0.73;;;0.43;;
20022;SDS011;10172;42.054;24.546;2022-09-28T18:22:59;4.90;;;0.40;;
20022;SDS011;10172;42.054;24.546;2022-09-28T18:25:25;0.70;;;0.40;;
20022;SDS011;10172;42.054;24.546;2022-09-28T18:27:50;1.15;;;0.45;;
20022;SDS011;10172;42.054;24.546;2022-09-28T18:30:21;0.73;;;0.32;;
20022;SDS011;10172;42.054;24.546;2022-09-28T18:32:47;0.90;;;0.50;;
20022;SDS011;10172;42.054;24.546;2022-09-28T18:35:12;0.70;;;0.32;;
20022;SDS011;10172;42.054;24.546;2022-09-28T18:37:38;0.50;;;0.50;;
20022;SDS011;10172;42.054;24.546;2022-09-28T18:40:04;1.30;;;0.40;;
20022;SDS011;10172;42.054;24.546;2022-09-28T18:42:31;0.93;;;0.30;;